オムスク の空港の天気 - METARとTAF

オムスク・ツェントラリヌィ空港 ( UNOO / OMS ) - ロシア オムスク
飛行場実況気象(Metar)
観測時間05/26 08:30 OMST (05/26 02:30 UTC)
風向・風速東 4m/s
視程10km以上
天気現象
なし
気温23℃
湿度36%
気圧1013hPa
METARUNOO 260230Z 08004MPS CAVOK 23/07 Q1013 R07/CLRD60 NOSIG RMK QFE751
過去の天気等 Google飛行場航空写真 Wunderground天気予報

過去48時間のMETAR

飛行場予報(TAF)
発表時間: 5/26 07:55 OMST (5/26 01:55 UTC)
予報対象時間: 26日9時 OMST ~ 27日9時 OMST
風向・風速東北東 3m/s 瞬間風速 9m/s
視程10km以上
全天の4割程度の雲 雲底高度 1010m
26日10時 OMST ~ 26日12時 OMST に徐々に
風向・風速東南東 6m/s 瞬間風速 13m/s
26日19時 OMST ~ 26日21時 OMST に徐々に
風向・風速南東 3m/s 瞬間風速 11m/s
全天の4割程度の積乱雲 雲底高度 910m
全天の8割程度の雲 雲底高度 1010m
27日4時 OMST ~ 27日6時 OMST に徐々に
風向・風速西南西 5m/s 瞬間風速 12m/s
TAF UNOO 260155Z 2603/2703 06003G09MPS 9999 SCT033
BECMG 2604/2606 11006G13MPS
BECMG 2613/2615 14003G11MPS SCT030CB BKN033
BECMG 2622/2624 25005G12MPS